sensor_id;sensor_type;location;lat;lon;timestamp;pressure;altitude;pressure_sealevel;temperature;humidity
20037;BME280;10179;42.640;23.312;2023-03-20T00:02:07;94003.16;;;11.57;39.64
20037;BME280;10179;42.640;23.312;2023-03-20T00:04:35;93985.84;;;11.49;39.49
20037;BME280;10179;42.640;23.312;2023-03-20T00:07:00;93999.50;;;11.58;39.47
20037;BME280;10179;42.640;23.312;2023-03-20T00:09:26;94001.84;;;11.66;39.59
20037;BME280;10179;42.640;23.312;2023-03-20T00:11:53;93997.03;;;11.63;39.57
20037;BME280;10179;42.640;23.312;2023-03-20T00:14:20;93988.78;;;11.59;39.56
20037;BME280;10179;42.640;23.312;2023-03-20T00:16:49;93978.66;;;11.44;39.80
20037;BME280;10179;42.640;23.312;2023-03-20T00:19:17;94000.59;;;11.50;39.79
20037;BME280;10179;42.640;23.312;2023-03-20T00:21:44;93993.16;;;11.47;40.17
20037;BME280;10179;42.640;23.312;2023-03-20T00:24:12;93973.91;;;11.35;40.07
20037;BME280;10179;42.640;23.312;2023-03-20T00:26:38;93949.34;;;11.22;39.94
20037;BME280;10179;42.640;23.312;2023-03-20T00:29:04;93982.00;;;11.33;40.10
20037;BME280;10179;42.640;23.312;2023-03-20T00:31:35;93994.94;;;11.35;40.24
20037;BME280;10179;42.640;23.312;2023-03-20T00:34:09;93980.41;;;11.32;40.42
20037;BME280;10179;42.640;23.312;2023-03-20T00:36:36;93987.31;;;11.27;40.21
20037;BME280;10179;42.640;23.312;2023-03-20T00:39:02;93993.06;;;11.23;40.74
20037;BME280;10179;42.640;23.312;2023-03-20T00:44:02;93980.41;;;11.14;40.63
20037;BME280;10179;42.640;23.312;2023-03-20T00:46:31;93977.84;;;11.07;40.66
20037;BME280;10179;42.640;23.312;2023-03-20T00:49:00;93962.28;;;10.87;40.84
20037;BME280;10179;42.640;23.312;2023-03-20T00:51:26;93870.81;;;10.22;40.85
20037;BME280;10179;42.640;23.312;2023-03-20T00:53:51;93975.66;;;10.86;41.07
20037;BME280;10179;42.640;23.312;2023-03-20T00:57:08;93984.84;;;10.95;41.20
20037;BME280;10179;42.640;23.312;2023-03-20T00:59:41;93963.63;;;10.78;41.32
20037;BME280;10179;42.640;23.312;2023-03-20T01:02:12;93967.63;;;10.81;41.55
20037;BME280;10179;42.640;23.312;2023-03-20T01:04:40;93964.84;;;10.75;41.62
20037;BME280;10179;42.640;23.312;2023-03-20T01:07:11;93966.03;;;10.80;41.66
20037;BME280;10179;42.640;23.312;2023-03-20T01:09:37;93970.53;;;10.72;41.74
20037;BME280;10179;42.640;23.312;2023-03-20T01:12:03;93968.34;;;10.69;41.78
20037;BME280;10179;42.640;23.312;2023-03-20T01:14:29;93949.66;;;10.59;41.82
20037;BME280;10179;42.640;23.312;2023-03-20T01:16:55;93951.28;;;10.60;41.86
20037;BME280;10179;42.640;23.312;2023-03-20T01:19:20;93937.25;;;10.48;42.05
20037;BME280;10179;42.640;23.312;2023-03-20T01:21:46;93909.59;;;10.20;42.06
20037;BME280;10179;42.640;23.312;2023-03-20T01:24:11;93950.16;;;10.49;42.18
20037;BME280;10179;42.640;23.312;2023-03-20T01:26:40;93949.56;;;10.47;42.40
20037;BME280;10179;42.640;23.312;2023-03-20T01:29:25;93951.09;;;10.55;42.33
20037;BME280;10179;42.640;23.312;2023-03-20T01:31:53;93897.97;;;10.10;42.48
20037;BME280;10179;42.640;23.312;2023-03-20T01:34:19;93941.53;;;10.42;42.42
20037;BME280;10179;42.640;23.312;2023-03-20T01:36:50;93901.56;;;10.15;42.44
20037;BME280;10179;42.640;23.312;2023-03-20T01:39:18;93907.00;;;10.14;42.45
20037;BME280;10179;42.640;23.312;2023-03-20T01:41:46;93959.84;;;10.49;42.42
20037;BME280;10179;42.640;23.312;2023-03-20T01:44:22;93958.41;;;10.53;42.42
20037;BME280;10179;42.640;23.312;2023-03-20T01:46:51;93953.84;;;10.42;42.47
20037;BME280;10179;42.640;23.312;2023-03-20T01:51:43;93964.72;;;10.45;42.50
20037;BME280;10179;42.640;23.312;2023-03-20T01:54:15;93957.81;;;10.51;42.60
20037;BME280;10179;42.640;23.312;2023-03-20T01:56:52;93971.53;;;10.53;42.54
20037;BME280;10179;42.640;23.312;2023-03-20T01:59:26;93965.69;;;10.51;42.57
20037;BME280;10179;42.640;23.312;2023-03-20T02:01:53;93972.78;;;10.50;42.62
20037;BME280;10179;42.640;23.312;2023-03-20T02:04:25;93902.41;;;10.09;42.50
20037;BME280;10179;42.640;23.312;2023-03-20T02:06:52;93967.72;;;10.74;42.22
20037;BME280;10179;42.640;23.312;2023-03-20T02:09:17;93966.50;;;10.51;42.34
20037;BME280;10179;42.640;23.312;2023-03-20T02:11:45;93956.03;;;10.45;42.58
20037;BME280;10179;42.640;23.312;2023-03-20T02:14:12;93939.03;;;10.29;42.50
20037;BME280;10179;42.640;23.312;2023-03-20T02:16:38;93953.09;;;10.35;42.52
20037;BME280;10179;42.640;23.312;2023-03-20T02:19:05;93952.53;;;10.33;42.77
20037;BME280;10179;42.640;23.312;2023-03-20T02:35:53;93965.06;;;9.99;43.15
20037;BME280;10179;42.640;23.312;2023-03-20T02:44:15;93960.50;;;9.88;43.93
20037;BME280;10179;42.640;23.312;2023-03-20T02:49:48;93948.63;;;9.85;43.92
20037;BME280;10179;42.640;23.312;2023-03-20T03:00:35;93936.66;;;9.64;44.14
20037;BME280;10179;42.640;23.312;2023-03-20T03:06:02;93939.88;;;9.66;44.24
20037;BME280;10179;42.640;23.312;2023-03-20T03:08:34;93942.69;;;9.65;44.46
20037;BME280;10179;42.640;23.312;2023-03-20T03:11:06;93947.13;;;9.64;44.51
20037;BME280;10179;42.640;23.312;2023-03-20T03:13:35;93945.53;;;9.63;44.42
20037;BME280;10179;42.640;23.312;2023-03-20T03:16:05;93947.56;;;9.61;44.62
20037;BME280;10179;42.640;23.312;2023-03-20T03:18:34;93931.31;;;9.46;44.78
20037;BME280;10179;42.640;23.312;2023-03-20T03:21:02;93941.13;;;9.57;44.69
20037;BME280;10179;42.640;23.312;2023-03-20T03:23:41;93938.69;;;9.62;44.63
20037;BME280;10179;42.640;23.312;2023-03-20T03:26:13;93939.91;;;9.60;44.66
20037;BME280;10179;42.640;23.312;2023-03-20T03:28:45;93949.38;;;9.61;44.83
20037;BME280;10179;42.640;23.312;2023-03-20T03:31:15;93939.28;;;9.64;44.82
20037;BME280;10179;42.640;23.312;2023-03-20T03:33:44;93849.28;;;9.07;44.44
20037;BME280;10179;42.640;23.312;2023-03-20T03:38:56;93944.75;;;9.63;44.60
20037;BME280;10179;42.640;23.312;2023-03-20T03:46:44;93943.00;;;9.82;44.49
20037;BME280;10179;42.640;23.312;2023-03-20T03:49:17;93928.56;;;9.72;44.39
20037;BME280;10179;42.640;23.312;2023-03-20T03:51:48;93946.59;;;9.87;44.32
20037;BME280;10179;42.640;23.312;2023-03-20T03:54:31;93943.75;;;9.89;43.95
20037;BME280;10179;42.640;23.312;2023-03-20T03:56:58;93942.63;;;9.78;44.02
20037;BME280;10179;42.640;23.312;2023-03-20T03:59:32;93934.16;;;9.76;44.11
20037;BME280;10179;42.640;23.312;2023-03-20T04:02:00;93892.16;;;9.51;44.15
20037;BME280;10179;42.640;23.312;2023-03-20T04:04:29;93928.56;;;9.72;44.19
20037;BME280;10179;42.640;23.312;2023-03-20T04:06:55;93873.31;;;9.36;44.15
20037;BME280;10179;42.640;23.312;2023-03-20T04:09:21;93928.56;;;9.72;44.14
20037;BME280;10179;42.640;23.312;2023-03-20T04:11:49;93926.91;;;9.71;44.19
20037;BME280;10179;42.640;23.312;2023-03-20T04:14:15;93910.88;;;9.54;44.02
20037;BME280;10179;42.640;23.312;2023-03-20T04:16:41;93875.94;;;9.36;44.18
20037;BME280;10179;42.640;23.312;2023-03-20T04:19:06;93934.63;;;9.66;44.21
20037;BME280;10179;42.640;23.312;2023-03-20T04:21:32;93917.72;;;9.62;44.26
20037;BME280;10179;42.640;23.312;2023-03-20T04:23:57;93892.16;;;9.51;44.01
20037;BME280;10179;42.640;23.312;2023-03-20T04:26:23;93899.19;;;9.57;43.99
20037;BME280;10179;42.640;23.312;2023-03-20T04:28:49;93924.13;;;9.66;44.15
20037;BME280;10179;42.640;23.312;2023-03-20T04:31:14;93869.09;;;9.35;43.99
20037;BME280;10179;42.640;23.312;2023-03-20T04:33:40;93916.09;;;9.61;44.19
20037;BME280;10179;42.640;23.312;2023-03-20T04:36:06;93912.91;;;9.59;44.21
20037;BME280;10179;42.640;23.312;2023-03-20T04:38:32;93723.56;;;8.37;44.39
20037;BME280;10179;42.640;23.312;2023-03-20T04:40:57;93922.53;;;9.65;44.38
20037;BME280;10179;42.640;23.312;2023-03-20T04:43:23;93923.88;;;9.74;44.35
20037;BME280;10179;42.640;23.312;2023-03-20T04:45:48;93921.84;;;9.76;44.22
20037;BME280;10179;42.640;23.312;2023-03-20T04:48:14;93895.88;;;9.68;44.23
20037;BME280;10179;42.640;23.312;2023-03-20T04:50:40;93941.63;;;10.04;44.22
20037;BME280;10179;42.640;23.312;2023-03-20T04:53:05;93939.16;;;10.09;43.77
20037;BME280;10179;42.640;23.312;2023-03-20T04:55:31;93945.91;;;10.23;43.82
20037;BME280;10179;42.640;23.312;2023-03-20T04:57:56;93937.84;;;10.25;43.66
20037;BME280;10179;42.640;23.312;2023-03-20T05:00:22;93933.41;;;10.25;43.50
20037;BME280;10179;42.640;23.312;2023-03-20T05:02:47;93953.41;;;10.45;43.45
20037;BME280;10179;42.640;23.312;2023-03-20T05:05:13;93965.41;;;10.59;43.48
20037;BME280;10179;42.640;23.312;2023-03-20T05:07:38;93896.22;;;10.29;43.02
20037;BME280;10179;42.640;23.312;2023-03-20T05:10:04;93953.19;;;10.71;43.11
20037;BME280;10179;42.640;23.312;2023-03-20T05:12:30;93933.69;;;10.61;42.91
20037;BME280;10179;42.640;23.312;2023-03-20T05:14:56;93957.72;;;10.83;42.70
20037;BME280;10179;42.640;23.312;2023-03-20T05:17:22;93950.97;;;10.87;42.87
20037;BME280;10179;42.640;23.312;2023-03-20T05:19:48;93958.22;;;10.91;42.85
20037;BME280;10179;42.640;23.312;2023-03-20T05:22:15;93957.34;;;10.97;42.94
20037;BME280;10179;42.640;23.312;2023-03-20T05:24:40;93970.19;;;11.06;42.66
20037;BME280;10179;42.640;23.312;2023-03-20T05:27:06;93961.22;;;11.13;42.62
20037;BME280;10179;42.640;23.312;2023-03-20T05:29:31;93974.28;;;11.20;42.47
20037;BME280;10179;42.640;23.312;2023-03-20T05:31:56;93760.50;;;9.92;42.34
20037;BME280;10179;42.640;23.312;2023-03-20T05:34:22;93967.69;;;11.29;42.25
20037;BME280;10179;42.640;23.312;2023-03-20T05:36:47;93964.41;;;11.34;42.39
20037;BME280;10179;42.640;23.312;2023-03-20T05:39:13;93953.06;;;11.33;42.29
20037;BME280;10179;42.640;23.312;2023-03-20T05:41:39;93959.56;;;11.49;42.38
20037;BME280;10179;42.640;23.312;2023-03-20T05:44:04;93962.31;;;11.54;42.10
20037;BME280;10179;42.640;23.312;2023-03-20T05:46:30;93970.19;;;11.73;41.99
20037;BME280;10179;42.640;23.312;2023-03-20T05:48:55;93967.38;;;11.86;41.90
20037;BME280;10179;42.640;23.312;2023-03-20T05:51:21;93920.31;;;11.47;41.69
20037;BME280;10179;42.640;23.312;2023-03-20T05:53:46;93977.63;;;12.17;41.54
20037;BME280;10179;42.640;23.312;2023-03-20T05:56:12;93978.81;;;12.33;40.91
20037;BME280;10179;42.640;23.312;2023-03-20T05:58:37;93974.94;;;12.48;40.59
20037;BME280;10179;42.640;23.312;2023-03-20T06:01:03;93972.31;;;12.59;40.37
20037;BME280;10179;42.640;23.312;2023-03-20T06:03:28;93908.16;;;12.30;40.15
20037;BME280;10179;42.640;23.312;2023-03-20T06:05:54;93960.03;;;12.77;39.92
20037;BME280;10179;42.640;23.312;2023-03-20T06:08:19;93960.94;;;12.94;39.85
20037;BME280;10179;42.640;23.312;2023-03-20T06:10:45;93966.78;;;13.08;39.37
20037;BME280;10179;42.640;23.312;2023-03-20T06:13:11;93959.41;;;13.22;39.42
20037;BME280;10179;42.640;23.312;2023-03-20T06:15:36;93953.59;;;13.31;39.27
20037;BME280;10179;42.640;23.312;2023-03-20T06:18:02;93956.75;;;13.45;38.83
20037;BME280;10179;42.640;23.312;2023-03-20T06:20:27;93965.53;;;13.63;38.59
20037;BME280;10179;42.640;23.312;2023-03-20T06:22:53;93970.44;;;13.71;38.34
20037;BME280;10179;42.640;23.312;2023-03-20T06:25:19;93975.22;;;13.74;38.46
20037;BME280;10179;42.640;23.312;2023-03-20T06:27:46;93964.81;;;13.67;38.35
20037;BME280;10179;42.640;23.312;2023-03-20T06:30:12;93982.31;;;13.85;38.21
20037;BME280;10179;42.640;23.312;2023-03-20T06:32:38;93976.88;;;13.92;37.99
20037;BME280;10179;42.640;23.312;2023-03-20T06:35:04;93974.63;;;14.00;37.96
20037;BME280;10179;42.640;23.312;2023-03-20T06:37:30;93972.50;;;14.14;38.13
20037;BME280;10179;42.640;23.312;2023-03-20T06:39:56;93968.75;;;14.27;37.85
20037;BME280;10179;42.640;23.312;2023-03-20T06:42:22;93952.13;;;14.26;37.71
20037;BME280;10179;42.640;23.312;2023-03-20T06:44:48;93977.75;;;14.60;37.14
20037;BME280;10179;42.640;23.312;2023-03-20T06:47:13;93988.00;;;14.73;37.02
20037;BME280;10179;42.640;23.312;2023-03-20T06:49:39;93976.00;;;14.82;36.68
20037;BME280;10179;42.640;23.312;2023-03-20T06:52:05;93971.25;;;14.84;36.44
20037;BME280;10179;42.640;23.312;2023-03-20T06:54:31;93976.19;;;14.97;36.58
20037;BME280;10179;42.640;23.312;2023-03-20T06:56:57;93976.41;;;15.13;36.43
20037;BME280;10179;42.640;23.312;2023-03-20T06:59:22;93971.63;;;15.32;35.97
20037;BME280;10179;42.640;23.312;2023-03-20T07:01:48;93971.94;;;15.57;35.70
20037;BME280;10179;42.640;23.312;2023-03-20T07:04:13;93970.94;;;15.85;35.14
20037;BME280;10179;42.640;23.312;2023-03-20T07:06:39;93968.03;;;16.14;34.72
20037;BME280;10179;42.640;23.312;2023-03-20T07:09:04;93952.31;;;16.34;34.18
20037;BME280;10179;42.640;23.312;2023-03-20T07:11:30;93963.16;;;16.65;34.02
20037;BME280;10179;42.640;23.312;2023-03-20T07:13:55;93959.63;;;16.81;33.41
20037;BME280;10179;42.640;23.312;2023-03-20T07:16:21;93922.31;;;16.66;33.53
20037;BME280;10179;42.640;23.312;2023-03-20T07:18:46;93965.31;;;17.05;33.63
20037;BME280;10179;42.640;23.312;2023-03-20T07:21:16;93968.88;;;17.21;33.27
20037;BME280;10179;42.640;23.312;2023-03-20T07:23:42;93964.16;;;17.38;32.82
20037;BME280;10179;42.640;23.312;2023-03-20T07:26:08;93946.38;;;17.44;32.78
20037;BME280;10179;42.640;23.312;2023-03-20T07:28:33;93956.31;;;17.69;32.82
20037;BME280;10179;42.640;23.312;2023-03-20T07:30:59;93894.63;;;17.41;32.60
20037;BME280;10179;42.640;23.312;2023-03-20T07:33:24;93953.72;;;17.89;32.16
20037;BME280;10179;42.640;23.312;2023-03-20T07:35:51;93913.28;;;17.67;32.37
20037;BME280;10179;42.640;23.312;2023-03-20T07:38:18;93950.88;;;18.11;32.25
20037;BME280;10179;42.640;23.312;2023-03-20T07:40:43;93958.59;;;18.23;31.89
20037;BME280;10179;42.640;23.312;2023-03-20T07:43:08;93964.97;;;18.27;31.67
20037;BME280;10179;42.640;23.312;2023-03-20T07:45:34;93964.16;;;18.27;31.71
20037;BME280;10179;42.640;23.312;2023-03-20T07:47:59;93961.78;;;18.41;32.17
20037;BME280;10179;42.640;23.312;2023-03-20T07:50:25;93959.94;;;18.51;31.21
20037;BME280;10179;42.640;23.312;2023-03-20T07:52:50;93961.78;;;18.56;31.05
20037;BME280;10179;42.640;23.312;2023-03-20T07:55:16;93964.47;;;18.61;30.85
20037;BME280;10179;42.640;23.312;2023-03-20T07:57:42;93957.53;;;18.60;30.81
20037;BME280;10179;42.640;23.312;2023-03-20T08:00:09;93955.41;;;18.62;30.63
20037;BME280;10179;42.640;23.312;2023-03-20T08:02:34;93906.72;;;18.31;30.48
20037;BME280;10179;42.640;23.312;2023-03-20T08:05:00;93963.63;;;18.71;30.58
20037;BME280;10179;42.640;23.312;2023-03-20T08:07:25;93964.75;;;18.75;30.38
20037;BME280;10179;42.640;23.312;2023-03-20T08:09:53;93964.44;;;18.92;29.92
20037;BME280;10179;42.640;23.312;2023-03-20T08:12:19;93952.47;;;19.04;29.75
20037;BME280;10179;42.640;23.312;2023-03-20T08:14:44;93915.47;;;18.98;29.57
20037;BME280;10179;42.640;23.312;2023-03-20T08:17:09;93971.25;;;19.44;28.90
20037;BME280;10179;42.640;23.312;2023-03-20T08:19:35;93954.22;;;19.40;28.56
20037;BME280;10179;42.640;23.312;2023-03-20T08:22:02;93937.63;;;19.58;28.22
20037;BME280;10179;42.640;23.312;2023-03-20T08:24:28;93904.66;;;19.49;27.93
20037;BME280;10179;42.640;23.312;2023-03-20T08:26:54;93968.47;;;19.79;27.39
20037;BME280;10179;42.640;23.312;2023-03-20T08:29:20;93962.06;;;19.86;27.42
20037;BME280;10179;42.640;23.312;2023-03-20T08:31:45;93959.88;;;19.93;27.89
20037;BME280;10179;42.640;23.312;2023-03-20T08:34:11;93948.97;;;19.94;27.17
20037;BME280;10179;42.640;23.312;2023-03-20T08:36:36;93963.47;;;20.17;27.45
20037;BME280;10179;42.640;23.312;2023-03-20T08:39:04;93966.06;;;20.33;27.65
20037;BME280;10179;42.640;23.312;2023-03-20T08:41:31;93916.31;;;20.08;27.71
20037;BME280;10179;42.640;23.312;2023-03-20T08:43:57;93953.66;;;20.52;27.70
20037;BME280;10179;42.640;23.312;2023-03-20T08:46:23;93970.84;;;20.75;27.11
20037;BME280;10179;42.640;23.312;2023-03-20T08:48:48;93967.13;;;20.71;27.09
20037;BME280;10179;42.640;23.312;2023-03-20T08:51:13;93964.56;;;20.61;27.20
20037;BME280;10179;42.640;23.312;2023-03-20T08:53:39;93961.66;;;20.57;27.31
20037;BME280;10179;42.640;23.312;2023-03-20T08:56:05;93817.69;;;19.68;27.36
20037;BME280;10179;42.640;23.312;2023-03-20T08:58:31;93963.16;;;20.68;27.43
20037;BME280;10179;42.640;23.312;2023-03-20T09:00:56;93959.31;;;20.80;27.45
20037;BME280;10179;42.640;23.312;2023-03-20T09:03:27;93963.69;;;21.00;27.12
20037;BME280;10179;42.640;23.312;2023-03-20T09:05:52;93966.66;;;21.22;26.66
20037;BME280;10179;42.640;23.312;2023-03-20T09:08:18;93949.72;;;21.32;26.28
20037;BME280;10179;42.640;23.312;2023-03-20T09:10:46;93949.53;;;21.52;25.99
20037;BME280;10179;42.640;23.312;2023-03-20T09:13:12;93888.22;;;21.37;26.01
20037;BME280;10179;42.640;23.312;2023-03-20T09:15:37;93949.13;;;21.83;25.91
20037;BME280;10179;42.640;23.312;2023-03-20T09:18:03;93949.72;;;21.80;25.78
20037;BME280;10179;42.640;23.312;2023-03-20T09:20:29;93893.44;;;21.47;25.61
20037;BME280;10179;42.640;23.312;2023-03-20T09:22:55;93942.91;;;21.68;25.71
20037;BME280;10179;42.640;23.312;2023-03-20T09:25:21;93891.06;;;21.21;26.56
20037;BME280;10179;42.640;23.312;2023-03-20T09:27:50;93933.50;;;21.52;26.28
20037;BME280;10179;42.640;23.312;2023-03-20T09:30:16;93939.91;;;21.51;26.03
20037;BME280;10179;42.640;23.312;2023-03-20T09:32:41;93943.22;;;21.43;26.08
20037;BME280;10179;42.640;23.312;2023-03-20T09:35:07;93916.06;;;21.31;26.73
20037;BME280;10179;42.640;23.312;2023-03-20T09:37:32;93936.44;;;21.51;26.36
20037;BME280;10179;42.640;23.312;2023-03-20T09:39:58;93920.28;;;21.61;26.06
20037;BME280;10179;42.640;23.312;2023-03-20T09:45:51;93923.34;;;22.11;25.99
20037;BME280;10179;42.640;23.312;2023-03-20T09:48:39;93901.75;;;22.26;25.82
20037;BME280;10179;42.640;23.312;2023-03-20T09:53:43;93887.63;;;22.39;25.52
20037;BME280;10179;42.640;23.312;2023-03-20T09:56:22;93879.81;;;22.57;25.82
20037;BME280;10179;42.640;23.312;2023-03-20T09:59:00;93881.94;;;22.74;25.84
20037;BME280;10179;42.640;23.312;2023-03-20T10:01:31;93884.56;;;22.79;25.01
20037;BME280;10179;42.640;23.312;2023-03-20T10:04:03;93870.19;;;22.75;24.72
20037;BME280;10179;42.640;23.312;2023-03-20T10:06:33;93853.19;;;22.66;24.73
20037;BME280;10179;42.640;23.312;2023-03-20T10:08:59;93860.72;;;22.63;25.06
20037;BME280;10179;42.640;23.312;2023-03-20T10:14:37;93852.78;;;22.58;25.25
20037;BME280;10179;42.640;23.312;2023-03-20T10:22:25;93856.59;;;22.85;25.11
20037;BME280;10179;42.640;23.312;2023-03-20T10:27:59;93852.81;;;22.86;24.76
20037;BME280;10179;42.640;23.312;2023-03-20T10:33:20;93848.69;;;23.07;24.75
20037;BME280;10179;42.640;23.312;2023-03-20T10:41:00;93832.19;;;22.86;24.60
20037;BME280;10179;42.640;23.312;2023-03-20T10:43:33;93842.09;;;22.86;24.79
20037;BME280;10179;42.640;23.312;2023-03-20T10:46:03;93827.81;;;22.77;24.85
20037;BME280;10179;42.640;23.312;2023-03-20T10:48:39;93825.03;;;22.68;24.57
20037;BME280;10179;42.640;23.312;2023-03-20T10:51:11;93794.06;;;22.48;24.85
20037;BME280;10179;42.640;23.312;2023-03-20T10:53:48;93826.25;;;22.90;24.97
20037;BME280;10179;42.640;23.312;2023-03-20T10:56:37;93814.34;;;22.82;25.02
20037;BME280;10179;42.640;23.312;2023-03-20T10:59:25;93819.53;;;22.92;24.67
20037;BME280;10179;42.640;23.312;2023-03-20T11:01:52;93813.34;;;23.05;24.73
20037;BME280;10179;42.640;23.312;2023-03-20T11:04:17;93790.63;;;23.17;24.41
20037;BME280;10179;42.640;23.312;2023-03-20T11:09:23;93803.75;;;23.54;23.81
20037;BME280;10179;42.640;23.312;2023-03-20T11:11:52;93803.16;;;23.57;23.76
20037;BME280;10179;42.640;23.312;2023-03-20T11:14:26;93781.72;;;23.57;23.41
20037;BME280;10179;42.640;23.312;2023-03-20T11:16:59;93793.72;;;23.74;23.33
20037;BME280;10179;42.640;23.312;2023-03-20T11:19:26;93717.06;;;23.23;23.21
20037;BME280;10179;42.640;23.312;2023-03-20T11:21:54;93780.31;;;23.74;23.06
20037;BME280;10179;42.640;23.312;2023-03-20T11:27:07;93789.09;;;24.11;22.74
20037;BME280;10179;42.640;23.312;2023-03-20T11:29:33;93778.28;;;24.24;22.54
20037;BME280;10179;42.640;23.312;2023-03-20T11:34:46;93767.13;;;24.62;22.34
20037;BME280;10179;42.640;23.312;2023-03-20T11:37:42;93763.28;;;24.94;22.23
20037;BME280;10179;42.640;23.312;2023-03-20T11:42:36;93735.63;;;25.03;22.05
20037;BME280;10179;42.640;23.312;2023-03-20T11:45:16;93751.53;;;25.30;21.61
20037;BME280;10179;42.640;23.312;2023-03-20T11:47:42;93728.94;;;25.31;21.24
20037;BME280;10179;42.640;23.312;2023-03-20T11:53:01;93744.44;;;25.69;20.96
20037;BME280;10179;42.640;23.312;2023-03-20T11:55:31;93713.13;;;25.73;20.91
20037;BME280;10179;42.640;23.312;2023-03-20T11:57:59;93715.81;;;25.99;20.39
20037;BME280;10179;42.640;23.312;2023-03-20T12:00:35;93721.44;;;26.24;20.53
20037;BME280;10179;42.640;23.312;2023-03-20T12:03:02;93713.72;;;26.22;20.13
20037;BME280;10179;42.640;23.312;2023-03-20T12:05:29;93718.94;;;26.18;19.60
20037;BME280;10179;42.640;23.312;2023-03-20T12:08:14;93718.81;;;25.98;19.73
20037;BME280;10179;42.640;23.312;2023-03-20T12:10:45;93715.34;;;25.54;19.91
20037;BME280;10179;42.640;23.312;2023-03-20T12:13:25;93709.78;;;25.15;19.95
20037;BME280;10179;42.640;23.312;2023-03-20T12:15:58;93711.38;;;24.68;20.19
20037;BME280;10179;42.640;23.312;2023-03-20T12:18:38;93706.47;;;24.30;20.59
20037;BME280;10179;42.640;23.312;2023-03-20T12:21:22;93707.25;;;23.99;20.80
20037;BME280;10179;42.640;23.312;2023-03-20T12:26:50;93705.47;;;23.50;21.06
20037;BME280;10179;42.640;23.312;2023-03-20T12:29:29;93700.75;;;23.33;21.32
20037;BME280;10179;42.640;23.312;2023-03-20T12:34:53;93700.97;;;23.23;21.39
20037;BME280;10179;42.640;23.312;2023-03-20T12:37:22;93699.63;;;23.12;21.50
20037;BME280;10179;42.640;23.312;2023-03-20T12:39:56;93698.03;;;23.10;21.71
20037;BME280;10179;42.640;23.312;2023-03-20T12:45:09;93685.13;;;23.13;21.75
20037;BME280;10179;42.640;23.312;2023-03-20T12:50:35;93674.56;;;23.30;21.76
20037;BME280;10179;42.640;23.312;2023-03-20T12:56:56;93669.13;;;23.21;21.44
20037;BME280;10179;42.640;23.312;2023-03-20T12:58:56;93667.25;;;23.22;21.41
20037;BME280;10179;42.640;23.312;2023-03-20T13:07:24;93663.81;;;23.30;21.15
20037;BME280;10179;42.640;23.312;2023-03-20T13:10:05;93656.38;;;23.27;21.29
20037;BME280;10179;42.640;23.312;2023-03-20T13:12:46;93652.31;;;23.29;21.23
20037;BME280;10179;42.640;23.312;2023-03-20T13:15:39;93653.09;;;23.30;21.56
20037;BME280;10179;42.640;23.312;2023-03-20T13:20:53;93641.34;;;23.62;21.49
20037;BME280;10179;42.640;23.312;2023-03-20T13:23:50;93636.78;;;23.40;21.43
20037;BME280;10179;42.640;23.312;2023-03-20T13:32:26;93588.78;;;23.07;20.54
20037;BME280;10179;42.640;23.312;2023-03-20T13:35:05;93625.03;;;23.27;20.56
20037;BME280;10179;42.640;23.312;2023-03-20T13:37:40;93617.19;;;23.31;20.79
20037;BME280;10179;42.640;23.312;2023-03-20T13:40:27;93589.56;;;23.30;20.88
20037;BME280;10179;42.640;23.312;2023-03-20T13:43:23;93612.91;;;23.52;20.80
20037;BME280;10179;42.640;23.312;2023-03-20T13:45:46;93607.72;;;23.56;20.78
20037;BME280;10179;42.640;23.312;2023-03-20T13:48:36;93614.06;;;23.60;20.47
20037;BME280;10179;42.640;23.312;2023-03-20T13:51:28;93605.06;;;23.65;20.58
20037;BME280;10179;42.640;23.312;2023-03-20T14:05:40;93597.81;;;23.88;20.41
20037;BME280;10179;42.640;23.312;2023-03-20T14:13:33;93561.94;;;23.75;20.03
20037;BME280;10179;42.640;23.312;2023-03-20T14:16:02;93534.84;;;23.54;19.99
20037;BME280;10179;42.640;23.312;2023-03-20T14:18:29;93568.13;;;23.84;19.89
20037;BME280;10179;42.640;23.312;2023-03-20T14:21:00;93574.66;;;24.00;19.83
20037;BME280;10179;42.640;23.312;2023-03-20T14:23:33;93569.44;;;24.04;20.05
20037;BME280;10179;42.640;23.312;2023-03-20T14:26:04;93514.88;;;23.69;19.78
20037;BME280;10179;42.640;23.312;2023-03-20T14:28:43;93566.03;;;24.12;19.82
20037;BME280;10179;42.640;23.312;2023-03-20T14:31:20;93572.47;;;24.11;19.56
20037;BME280;10179;42.640;23.312;2023-03-20T14:33:52;93538.34;;;23.94;19.61
20037;BME280;10179;42.640;23.312;2023-03-20T14:36:26;93550.72;;;24.13;19.81
20037;BME280;10179;42.640;23.312;2023-03-20T14:47:26;93508.34;;;23.92;19.24
20037;BME280;10179;42.640;23.312;2023-03-20T14:50:10;93554.19;;;24.22;19.35
20037;BME280;10179;42.640;23.312;2023-03-20T14:57:42;93533.94;;;23.98;18.92
20037;BME280;10179;42.640;23.312;2023-03-20T15:00:20;93552.44;;;24.17;19.35
20037;BME280;10179;42.640;23.312;2023-03-20T15:03:08;93554.19;;;24.22;19.33
20037;BME280;10179;42.640;23.312;2023-03-20T15:05:36;93551.50;;;24.13;19.11
20037;BME280;10179;42.640;23.312;2023-03-20T15:08:06;93544.72;;;24.16;19.36
20037;BME280;10179;42.640;23.312;2023-03-20T15:10:34;93556.09;;;24.13;19.37
20037;BME280;10179;42.640;23.312;2023-03-20T15:13:04;93549.13;;;24.12;19.70
20037;BME280;10179;42.640;23.312;2023-03-20T15:15:30;93528.84;;;23.88;19.77
20037;BME280;10179;42.640;23.312;2023-03-20T15:18:03;93545.97;;;24.10;19.84
20037;BME280;10179;42.640;23.312;2023-03-20T15:20:29;93548.31;;;24.02;20.32
20037;BME280;10179;42.640;23.312;2023-03-20T15:23:00;93556.97;;;23.99;20.68
20037;BME280;10179;42.640;23.312;2023-03-20T15:25:38;93538.19;;;23.91;21.20
20037;BME280;10179;42.640;23.312;2023-03-20T15:28:11;93523.44;;;23.71;21.73